Time;durP1;ratioP1;P1;durP2;ratioP2;P2;SDS_P1;SDS_P2;PMS_P1;PMS_P2;Temp;Humidity;BMP_temperature;BMP_pressure;BME280_temperature;BME280_humidity;BME280_pressure;Samples;Min_cycle;Max_cycle;Signal;HPM_P1;HPM_P2
2023/08/30 00:00:07;;;;;;;32.80;22.13;;;14.60;99.90;;;;;;5048562;28;20080;-57
2023/08/30 00:02:33;;;;;;;32.30;21.30;;;14.60;99.90;;;;;;5038570;28;20082;-58
2023/08/30 00:04:59;;;;;;;30.23;21.00;;;14.60;99.90;;;;;;5043082;28;20409;-57
2023/08/30 00:07:26;;;;;;;36.47;23.83;;;14.60;99.90;;;;;;5041995;28;20036;-55
2023/08/30 00:09:51;;;;;;;34.60;22.30;;;14.60;99.90;;;;;;5038746;28;20020;-55
2023/08/30 00:12:17;;;;;;;31.25;22.02;;;14.70;99.90;;;;;;5040751;28;20098;-54
2023/08/30 00:14:42;;;;;;;34.47;21.98;;;14.70;99.90;;;;;;5040580;28;20025;-53
2023/08/30 00:17:09;;;;;;;30.60;21.77;;;14.80;99.90;;;;;;5035519;28;20486;-58
2023/08/30 00:19:34;;;;;;;29.95;20.50;;;14.70;99.90;;;;;;5050209;28;20060;-58
2023/08/30 00:22:00;;;;;;;37.03;22.20;;;14.80;99.90;;;;;;5047473;28;20024;-58
2023/08/30 00:24:26;;;;;;;33.85;23.40;;;14.70;99.90;;;;;;5042323;28;20064;-57
2023/08/30 00:26:51;;;;;;;34.40;22.13;;;14.70;99.90;;;;;;5044114;28;20449;-54
2023/08/30 00:29:17;;;;;;;32.67;23.65;;;14.70;99.90;;;;;;5040553;28;20390;-57
2023/08/30 00:31:42;;;;;;;35.17;21.65;;;14.70;99.90;;;;;;5039512;28;20048;-57
2023/08/30 00:34:08;;;;;;;34.15;21.63;;;14.70;99.90;;;;;;5040463;28;20032;-55
2023/08/30 00:36:33;;;;;;;30.80;21.58;;;14.70;99.90;;;;;;5042872;28;20036;-55
2023/08/30 00:38:59;;;;;;;31.35;21.25;;;14.70;99.90;;;;;;5039981;28;20029;-55
2023/08/30 00:41:24;;;;;;;32.72;20.67;;;14.70;99.90;;;;;;5040235;28;20028;-58
2023/08/30 00:43:50;;;;;;;33.90;20.35;;;14.70;99.90;;;;;;5023627;28;20130;-56
2023/08/30 00:46:16;;;;;;;34.08;21.42;;;14.70;99.90;;;;;;5039470;28;20021;-58
2023/08/30 00:48:44;;;;;;;29.10;20.83;;;14.70;99.90;;;;;;5041419;28;20051;-56
2023/08/30 00:51:09;;;;;;;31.13;20.08;;;14.70;99.90;;;;;;5041840;28;20382;-57
2023/08/30 00:53:35;;;;;;;30.88;21.15;;;14.70;99.90;;;;;;5041741;28;20033;-55
2023/08/30 00:56:01;;;;;;;32.70;20.23;;;14.80;99.90;;;;;;5039074;28;20118;-55
2023/08/30 00:58:27;;;;;;;34.33;20.73;;;14.80;99.90;;;;;;5040124;28;20558;-53
2023/08/30 01:00:54;;;;;;;29.55;18.27;;;14.80;99.90;;;;;;5036352;28;20053;-58
2023/08/30 01:03:21;;;;;;;32.08;18.75;;;14.80;99.90;;;;;;5045196;28;20029;-55
2023/08/30 01:05:47;;;;;;;29.50;18.98;;;14.80;99.90;;;;;;5039810;28;20042;-57
2023/08/30 01:08:13;;;;;;;28.70;19.45;;;14.80;99.90;;;;;;5038840;28;20483;-58
2023/08/30 01:11:03;;;;;;;30.08;18.58;;;14.80;99.90;;;;;;5039499;28;20370;-57
2023/08/30 01:13:33;;;;;;;27.23;17.73;;;14.80;99.90;;;;;;5043868;28;20379;-59
2023/08/30 01:16:00;;;;;;;29.25;18.17;;;14.80;99.90;;;;;;5034434;28;20166;-57
2023/08/30 01:18:28;;;;;;;23.35;17.05;;;14.80;99.90;;;;;;5040077;28;20017;-56
2023/08/30 01:20:55;;;;;;;23.80;16.77;;;14.80;99.90;;;;;;5043424;28;20025;-58
2023/08/30 01:23:40;;;;;;;25.60;18.02;;;14.80;99.90;;;;;;5042932;28;20033;-53
2023/08/30 01:26:08;;;;;;;24.95;16.38;;;14.80;99.90;;;;;;5037572;28;20021;-57
2023/08/30 01:28:36;;;;;;;25.75;17.25;;;14.80;99.90;;;;;;5035547;28;20066;-56
2023/08/30 01:31:03;;;;;;;26.10;16.33;;;14.80;99.90;;;;;;5041174;28;20022;-59
2023/08/30 01:33:30;;;;;;;23.17;15.27;;;14.90;99.90;;;;;;5041569;28;20205;-57
2023/08/30 01:35:58;;;;;;;27.75;16.55;;;14.90;99.90;;;;;;5042807;28;20020;-56
2023/08/30 01:38:26;;;;;;;22.60;15.35;;;14.80;99.90;;;;;;5036887;28;20041;-60
2023/08/30 01:40:53;;;;;;;32.25;16.17;;;14.80;99.90;;;;;;5035586;28;20036;-58
2023/08/30 01:43:21;;;;;;;28.10;16.63;;;14.70;99.90;;;;;;5035783;28;20515;-57
2023/08/30 01:45:47;;;;;;;23.40;16.27;;;14.70;99.90;;;;;;5035366;28;20025;-56
2023/08/30 01:48:16;;;;;;;27.20;16.70;;;14.70;99.90;;;;;;5043930;28;20344;-59
2023/08/30 01:50:43;;;;;;;25.40;15.82;;;14.60;99.90;;;;;;5040857;28;20352;-58
2023/08/30 01:53:11;;;;;;;25.92;15.85;;;14.60;99.90;;;;;;5035613;28;20366;-60
2023/08/30 01:55:38;;;;;;;25.17;16.20;;;14.60;99.90;;;;;;5044151;28;20040;-58
2023/08/30 01:58:04;;;;;;;22.27;14.43;;;14.60;99.90;;;;;;5036290;28;20017;-56
2023/08/30 02:00:30;;;;;;;31.92;16.90;;;14.60;99.90;;;;;;5038024;28;20044;-55
2023/08/30 02:02:56;;;;;;;25.98;17.45;;;14.60;99.90;;;;;;5030388;28;20040;-59
2023/08/30 02:05:21;;;;;;;29.05;17.48;;;14.60;99.90;;;;;;5039687;28;20022;-58
2023/08/30 02:08:24;;;;;;;25.88;15.75;;;14.50;99.90;;;;;;5032459;28;20035;-60
2023/08/30 02:10:56;;;;;;;25.52;18.00;;;14.50;99.90;;;;;;5034823;28;20069;-59
2023/08/30 02:13:26;;;;;;;30.52;17.92;;;14.40;99.90;;;;;;5036982;28;20100;-58
2023/08/30 02:15:58;;;;;;;31.63;18.48;;;14.40;99.90;;;;;;5039996;28;20072;-59
2023/08/30 02:18:25;;;;;;;28.98;17.48;;;14.30;99.90;;;;;;5046560;28;20028;-58
2023/08/30 02:20:51;;;;;;;26.75;17.85;;;14.20;99.90;;;;;;5036774;28;20033;-59
2023/08/30 02:23:17;;;;;;;26.35;16.92;;;14.10;99.90;;;;;;5035608;28;20033;-58
2023/08/30 02:25:42;;;;;;;29.38;19.50;;;14.10;99.90;;;;;;5036715;28;20033;-59
2023/08/30 02:28:08;;;;;;;26.63;17.52;;;14.00;99.90;;;;;;5037860;28;20024;-58
2023/08/30 02:30:33;;;;;;;26.75;17.67;;;14.00;99.90;;;;;;5035962;28;20100;-58
2023/08/30 02:32:59;;;;;;;31.33;18.33;;;14.00;99.90;;;;;;5040437;28;20041;-58
2023/08/30 02:35:24;;;;;;;33.45;20.48;;;14.00;99.90;;;;;;5037701;28;20422;-58
2023/08/30 02:37:50;;;;;;;31.58;19.88;;;14.00;99.90;;;;;;5040094;28;20045;-58
2023/08/30 02:40:15;;;;;;;28.48;19.52;;;14.00;99.90;;;;;;5035890;28;20544;-58
2023/08/30 02:42:41;;;;;;;29.35;20.20;;;14.00;99.90;;;;;;5037798;28;20017;-58
2023/08/30 02:45:07;;;;;;;30.25;20.77;;;14.00;99.90;;;;;;5040660;28;20025;-56
2023/08/30 02:47:32;;;;;;;32.95;19.50;;;13.90;99.90;;;;;;5041472;28;20475;-58
2023/08/30 02:49:58;;;;;;;30.58;19.73;;;13.90;99.90;;;;;;5038297;28;20031;-58
2023/08/30 02:52:23;;;;;;;28.02;19.77;;;13.90;99.90;;;;;;5040780;28;20032;-58
2023/08/30 02:54:49;;;;;;;28.08;18.88;;;13.80;99.90;;;;;;5037729;28;20025;-58
2023/08/30 02:57:14;;;;;;;31.13;18.38;;;13.70;99.90;;;;;;5041576;28;20025;-57
2023/08/30 02:59:40;;;;;;;26.35;18.13;;;13.70;99.90;;;;;;5034699;28;20053;-59
2023/08/30 03:02:05;;;;;;;28.92;18.83;;;13.60;99.90;;;;;;5038297;28;20483;-58
2023/08/30 03:04:31;;;;;;;31.70;20.13;;;13.60;99.90;;;;;;5042364;28;20040;-59
2023/08/30 03:06:56;;;;;;;27.48;19.73;;;13.50;99.90;;;;;;5045850;28;20651;-58
2023/08/30 03:09:22;;;;;;;30.90;18.20;;;13.50;99.90;;;;;;5042667;28;20028;-58
2023/08/30 03:11:47;;;;;;;35.25;19.42;;;13.50;99.90;;;;;;5042258;28;20021;-58
2023/08/30 03:14:13;;;;;;;27.02;19.15;;;13.40;99.90;;;;;;5037537;28;20044;-55
2023/08/30 03:16:39;;;;;;;29.55;19.30;;;13.40;99.90;;;;;;5039632;28;20032;-56
2023/08/30 03:19:05;;;;;;;28.75;18.83;;;13.40;99.90;;;;;;5038175;28;20035;-57
2023/08/30 03:21:30;;;;;;;31.58;20.42;;;13.30;99.90;;;;;;5042899;28;20024;-58
2023/08/30 03:23:56;;;;;;;38.05;19.63;;;13.30;99.90;;;;;;5040440;28;20051;-59
2023/08/30 03:26:21;;;;;;;31.08;20.20;;;13.30;99.90;;;;;;5045352;28;20037;-57
2023/08/30 03:28:47;;;;;;;30.85;19.73;;;13.20;99.90;;;;;;5038709;28;20021;-56
2023/08/30 03:31:18;;;;;;;34.58;20.30;;;13.20;99.90;;;;;;5047683;28;20099;-55
2023/08/30 03:33:44;;;;;;;37.20;19.27;;;13.20;99.90;;;;;;5045450;28;20120;-55
2023/08/30 03:36:11;;;;;;;28.02;18.70;;;13.10;99.90;;;;;;5043533;28;20640;-55
2023/08/30 03:38:38;;;;;;;34.25;19.75;;;13.10;99.90;;;;;;5042551;28;20026;-55
2023/08/30 03:41:04;;;;;;;29.83;18.98;;;13.10;99.90;;;;;;5038836;28;20021;-58
2023/08/30 03:43:30;;;;;;;29.77;18.70;;;13.00;99.90;;;;;;5035986;28;20602;-53
2023/08/30 03:45:56;;;;;;;29.48;17.38;;;13.00;99.90;;;;;;5045713;28;20036;-57
2023/08/30 03:48:22;;;;;;;24.75;17.35;;;13.00;99.90;;;;;;5046369;28;20086;-58
2023/08/30 03:50:47;;;;;;;24.00;17.27;;;13.00;99.90;;;;;;5040345;28;20471;-57
2023/08/30 03:53:13;;;;;;;29.00;17.00;;;13.00;99.90;;;;;;5041998;28;20021;-58
2023/08/30 03:55:38;;;;;;;24.58;16.77;;;12.90;99.90;;;;;;5041774;28;20044;-55
2023/08/30 03:58:04;;;;;;;28.70;15.43;;;12.90;99.90;;;;;;5037348;28;20025;-58
2023/08/30 04:00:29;;;;;;;23.67;15.43;;;12.90;99.90;;;;;;5039260;28;20029;-59
2023/08/30 04:02:55;;;;;;;21.60;15.35;;;12.90;99.90;;;;;;5045895;28;20025;-54
2023/08/30 04:05:20;;;;;;;22.73;14.88;;;12.80;99.90;;;;;;5040682;28;20032;-55
2023/08/30 04:07:46;;;;;;;28.77;16.88;;;12.80;99.90;;;;;;5043552;28;20040;-59
2023/08/30 04:10:11;;;;;;;23.65;15.48;;;12.70;99.90;;;;;;5043528;28;20060;-59
2023/08/30 04:12:37;;;;;;;19.20;14.43;;;12.70;99.90;;;;;;5032552;28;20792;-58
2023/08/30 04:15:03;;;;;;;26.15;14.75;;;12.70;99.90;;;;;;5036779;28;20065;-56
2023/08/30 04:17:28;;;;;;;21.45;13.93;;;12.70;99.90;;;;;;5036830;28;20414;-57
2023/08/30 04:19:54;;;;;;;21.20;13.10;;;12.60;99.90;;;;;;5011170;28;20033;-57
2023/08/30 04:22:20;;;;;;;20.02;13.95;;;12.60;99.90;;;;;;5041185;28;20452;-58
2023/08/30 04:24:46;;;;;;;31.02;13.60;;;12.60;99.90;;;;;;5036650;28;20104;-58
2023/08/30 04:27:12;;;;;;;22.77;13.13;;;12.70;99.90;;;;;;5020564;28;20084;-58
2023/08/30 04:29:37;;;;;;;24.63;12.65;;;12.60;99.90;;;;;;5025719;28;20100;-59
2023/08/30 04:32:03;;;;;;;19.63;14.18;;;12.60;99.90;;;;;;5038960;28;20044;-58
2023/08/30 04:34:30;;;;;;;24.23;13.85;;;12.50;99.90;;;;;;5021345;28;20037;-58
2023/08/30 04:36:56;;;;;;;21.98;14.85;;;12.50;99.90;;;;;;5037383;28;20571;-59
2023/08/30 04:39:21;;;;;;;20.35;13.70;;;12.50;99.90;;;;;;5031952;28;20041;-58
2023/08/30 04:41:47;;;;;;;18.35;12.48;;;12.50;99.90;;;;;;5043334;28;21663;-60
2023/08/30 04:44:12;;;;;;;18.15;12.65;;;12.50;99.90;;;;;;5034737;28;20025;-56
2023/08/30 04:46:38;;;;;;;17.52;12.18;;;12.50;99.90;;;;;;5034573;28;20474;-58
2023/08/30 04:49:03;;;;;;;18.30;12.93;;;12.40;99.90;;;;;;5039323;28;20087;-58
2023/08/30 04:51:29;;;;;;;22.88;12.55;;;12.40;99.90;;;;;;5033755;28;20115;-59
2023/08/30 04:53:54;;;;;;;22.83;13.57;;;12.40;99.90;;;;;;5031265;28;20025;-59
2023/08/30 04:56:20;;;;;;;20.95;13.35;;;12.40;99.90;;;;;;5037418;28;20107;-58
2023/08/30 04:58:45;;;;;;;26.20;13.00;;;12.40;99.90;;;;;;5039119;28;20495;-59
2023/08/30 05:01:13;;;;;;;20.20;13.27;;;12.40;99.90;;;;;;5016791;28;20025;-59
2023/08/30 05:03:39;;;;;;;19.88;14.10;;;12.40;99.90;;;;;;5035713;28;20044;-58
2023/08/30 05:06:05;;;;;;;21.48;13.77;;;12.40;99.90;;;;;;5043021;28;20031;-58
2023/08/30 05:08:31;;;;;;;19.52;13.13;;;12.40;99.90;;;;;;5041620;28;20021;-57
2023/08/30 05:10:57;;;;;;;22.63;13.80;;;12.30;99.90;;;;;;5035816;28;20021;-59
2023/08/30 05:13:22;;;;;;;22.90;13.88;;;12.30;99.90;;;;;;5040951;28;20016;-58
2023/08/30 05:15:48;;;;;;;22.58;14.52;;;12.30;99.90;;;;;;4999217;28;1058938;-59
2023/08/30 05:18:13;;;;;;;20.80;13.18;;;12.40;99.90;;;;;;5025411;28;20028;-58
2023/08/30 05:20:39;;;;;;;19.02;13.07;;;12.30;99.90;;;;;;5032031;28;20021;-60
2023/08/30 05:23:04;;;;;;;22.17;14.45;;;12.40;99.90;;;;;;5035244;28;20101;-57
2023/08/30 05:25:30;;;;;;;23.92;13.68;;;12.40;99.90;;;;;;5039040;28;20103;-58
2023/08/30 05:27:56;;;;;;;18.33;13.18;;;12.40;99.90;;;;;;5030849;28;20029;-57
2023/08/30 05:30:21;;;;;;;23.60;14.52;;;12.40;99.90;;;;;;5038988;28;20470;-56
2023/08/30 05:32:47;;;;;;;22.58;13.80;;;12.50;99.90;;;;;;5036189;28;20033;-57
2023/08/30 05:35:12;;;;;;;22.33;12.90;;;12.50;99.90;;;;;;5039903;28;20047;-55
2023/08/30 05:37:38;;;;;;;19.48;12.18;;;12.50;99.90;;;;;;5038083;28;20025;-56
2023/08/30 05:40:04;;;;;;;17.48;12.15;;;12.50;99.90;;;;;;5038157;28;20067;-56
2023/08/30 05:42:30;;;;;;;18.38;13.90;;;12.60;99.90;;;;;;5031816;28;20075;-58
2023/08/30 05:44:55;;;;;;;24.85;13.38;;;12.60;99.90;;;;;;5039736;28;20052;-55
2023/08/30 05:47:21;;;;;;;19.58;12.75;;;12.60;99.90;;;;;;5041972;28;20459;-58
2023/08/30 05:49:47;;;;;;;31.65;17.48;;;12.60;99.90;;;;;;5042065;28;20701;-59
2023/08/30 05:52:16;;;;;;;22.85;16.08;;;12.60;99.90;;;;;;5050972;28;20062;-59
2023/08/30 05:54:42;;;;;;;24.30;16.10;;;12.70;99.90;;;;;;5044937;28;20028;-57
2023/08/30 05:57:08;;;;;;;18.90;13.73;;;12.70;99.90;;;;;;5039053;28;20056;-58
2023/08/30 05:59:34;;;;;;;17.92;13.00;;;12.70;99.90;;;;;;5036053;28;20030;-59
2023/08/30 06:02:00;;;;;;;20.35;13.38;;;12.70;99.90;;;;;;5034398;28;20013;-58
2023/08/30 06:04:26;;;;;;;20.85;14.98;;;12.70;99.90;;;;;;5030335;28;20027;-59
2023/08/30 06:06:51;;;;;;;23.65;15.07;;;12.80;99.90;;;;;;5038066;28;20033;-59
2023/08/30 06:09:17;;;;;;;23.48;15.13;;;12.80;99.90;;;;;;5036504;28;20017;-57
2023/08/30 06:11:42;;;;;;;22.70;13.48;;;12.80;99.90;;;;;;5033843;28;20019;-56
2023/08/30 06:14:08;;;;;;;28.55;14.25;;;12.90;99.90;;;;;;5040084;28;20031;-58
2023/08/30 06:16:33;;;;;;;33.80;15.70;;;13.00;99.90;;;;;;5038160;28;20368;-55
2023/08/30 06:18:59;;;;;;;21.83;15.38;;;13.10;99.90;;;;;;5039399;28;20029;-58
2023/08/30 06:21:25;;;;;;;28.38;16.90;;;13.20;99.90;;;;;;5042779;28;20045;-55
2023/08/30 06:23:51;;;;;;;27.33;17.25;;;13.20;99.90;;;;;;5040726;28;20479;-57
2023/08/30 06:26:17;;;;;;;24.23;15.98;;;13.30;99.90;;;;;;5041783;28;20047;-58
2023/08/30 06:28:44;;;;;;;24.75;16.48;;;13.30;99.90;;;;;;5039114;28;20017;-58
2023/08/30 06:31:09;;;;;;;23.30;16.40;;;13.40;99.90;;;;;;5040386;28;20089;-58
2023/08/30 06:33:35;;;;;;;26.58;18.10;;;13.60;99.90;;;;;;5035004;28;20036;-59
2023/08/30 06:36:01;;;;;;;28.00;17.55;;;13.70;99.90;;;;;;5030019;28;20047;-59
2023/08/30 06:38:27;;;;;;;29.38;16.42;;;13.90;99.90;;;;;;5037064;28;20048;-56
2023/08/30 06:40:53;;;;;;;26.35;17.35;;;14.00;99.90;;;;;;5040721;28;20036;-58
2023/08/30 06:43:19;;;;;;;30.83;16.98;;;14.20;99.90;;;;;;5034385;28;20044;-57
2023/08/30 06:45:44;;;;;;;26.38;16.50;;;14.40;99.90;;;;;;5044868;28;20021;-59
2023/08/30 06:48:10;;;;;;;33.63;17.08;;;14.50;99.90;;;;;;5034659;28;20009;-57
2023/08/30 06:50:35;;;;;;;28.40;15.15;;;14.70;99.90;;;;;;5028956;28;20096;-56
2023/08/30 06:53:02;;;;;;;27.45;14.60;;;14.80;99.90;;;;;;5039025;28;20025;-58
2023/08/30 06:55:28;;;;;;;20.58;12.20;;;14.90;99.90;;;;;;5043069;28;20044;-59
2023/08/30 06:57:54;;;;;;;19.52;10.73;;;15.00;99.90;;;;;;5034954;28;20029;-58
2023/08/30 07:00:20;;;;;;;18.77;9.93;;;15.10;99.90;;;;;;5042193;28;20590;-57
2023/08/30 07:02:46;;;;;;;15.25;8.82;;;15.10;99.90;;;;;;5040557;28;20017;-57
2023/08/30 07:05:14;;;;;;;16.58;9.90;;;15.20;99.90;;;;;;5034918;28;20578;-55
2023/08/30 07:07:40;;;;;;;16.40;9.43;;;15.30;99.90;;;;;;5041594;28;20385;-59
2023/08/30 07:10:06;;;;;;;17.95;8.93;;;15.30;99.90;;;;;;5041209;28;20036;-58
2023/08/30 07:12:31;;;;;;;16.00;8.80;;;15.30;99.90;;;;;;5041318;28;20391;-59
2023/08/30 07:14:57;;;;;;;18.83;7.55;;;15.40;99.90;;;;;;5037471;28;20030;-59
2023/08/30 07:17:23;;;;;;;16.50;8.05;;;15.40;99.90;;;;;;5038983;28;20487;-59
2023/08/30 07:19:49;;;;;;;16.58;7.63;;;15.50;99.90;;;;;;5037954;28;20037;-59
2023/08/30 07:22:16;;;;;;;17.42;8.90;;;15.60;99.90;;;;;;5034828;28;20033;-59
2023/08/30 07:24:43;;;;;;;12.32;7.95;;;15.60;99.90;;;;;;5034373;28;20029;-58
2023/08/30 07:27:08;;;;;;;17.33;7.10;;;15.70;99.90;;;;;;5029784;28;20033;-58
2023/08/30 07:29:34;;;;;;;13.57;7.85;;;15.70;99.90;;;;;;5032465;28;20037;-57
2023/08/30 07:31:59;;;;;;;14.60;7.70;;;15.80;99.90;;;;;;5042202;28;20029;-59
2023/08/30 07:34:25;;;;;;;13.38;7.88;;;15.80;99.90;;;;;;5029843;28;20036;-58
2023/08/30 07:36:54;;;;;;;12.82;7.57;;;15.80;99.90;;;;;;5043288;28;20025;-57
2023/08/30 07:39:19;;;;;;;12.63;7.70;;;15.90;99.90;;;;;;5036388;28;20050;-59
2023/08/30 07:41:45;;;;;;;14.35;7.40;;;16.00;99.90;;;;;;5035852;28;20356;-58
2023/08/30 07:44:10;;;;;;;9.32;7.15;;;16.10;99.90;;;;;;5043737;28;20530;-59
2023/08/30 07:46:36;;;;;;;17.77;8.05;;;16.10;99.90;;;;;;5040341;28;20099;-56
2023/08/30 07:49:02;;;;;;;8.75;6.28;;;16.20;99.90;;;;;;5041083;28;20037;-57
2023/08/30 07:51:28;;;;;;;10.70;6.13;;;16.30;99.90;;;;;;5041616;28;20017;-58
2023/08/30 07:53:53;;;;;;;13.48;5.82;;;16.40;99.90;;;;;;5038696;28;20018;-59
2023/08/30 07:56:19;;;;;;;17.33;6.60;;;16.40;99.90;;;;;;5038841;28;20076;-57
2023/08/30 07:58:44;;;;;;;11.25;6.72;;;16.50;99.90;;;;;;5037466;28;20144;-59
2023/08/30 08:01:10;;;;;;;11.55;5.75;;;16.60;99.90;;;;;;5036028;28;20108;-56
2023/08/30 08:03:35;;;;;;;9.57;5.95;;;16.80;99.90;;;;;;5030986;28;20029;-59
2023/08/30 08:06:01;;;;;;;13.07;6.00;;;16.80;99.90;;;;;;5042323;28;20551;-58
2023/08/30 08:08:26;;;;;;;18.20;5.90;;;16.90;99.90;;;;;;5043204;28;20028;-59
2023/08/30 08:10:52;;;;;;;9.45;5.15;;;17.10;99.90;;;;;;5052090;28;20075;-58
2023/08/30 08:13:17;;;;;;;15.75;5.90;;;17.20;99.90;;;;;;5034870;28;20048;-59
2023/08/30 08:15:44;;;;;;;11.27;4.88;;;17.30;99.90;;;;;;5042367;28;20069;-58
2023/08/30 08:18:09;;;;;;;13.30;4.50;;;17.30;99.90;;;;;;5034506;28;20028;-57
2023/08/30 08:20:36;;;;;;;10.38;4.53;;;17.50;99.90;;;;;;5037632;28;20029;-55
2023/08/30 08:23:02;;;;;;;8.50;5.13;;;17.70;99.90;;;;;;5045054;28;20025;-56
2023/08/30 08:25:28;;;;;;;14.60;5.10;;;17.80;99.90;;;;;;5040348;28;20020;-57
2023/08/30 08:27:53;;;;;;;7.10;4.30;;;18.00;99.90;;;;;;5035125;28;20357;-58
2023/08/30 08:30:20;;;;;;;19.30;4.68;;;18.10;99.90;;;;;;5046105;28;20037;-58
2023/08/30 08:32:47;;;;;;;9.48;3.63;;;18.20;99.90;;;;;;5050797;28;20027;-58
2023/08/30 08:35:13;;;;;;;8.70;3.47;;;18.30;99.90;;;;;;5043092;28;20017;-57
2023/08/30 08:37:39;;;;;;;7.53;3.60;;;18.50;99.90;;;;;;5050722;28;20028;-58
2023/08/30 08:40:08;;;;;;;6.05;3.20;;;18.60;99.90;;;;;;5047154;28;20108;-55
2023/08/30 08:42:35;;;;;;;7.00;2.90;;;18.70;99.90;;;;;;5050335;28;20026;-58
2023/08/30 08:45:02;;;;;;;7.05;2.55;;;18.80;99.90;;;;;;5044828;28;20021;-57
2023/08/30 08:47:30;;;;;;;6.38;2.90;;;18.90;99.90;;;;;;5048412;28;20091;-57
2023/08/30 08:49:57;;;;;;;5.28;2.80;;;19.10;99.90;;;;;;5046825;28;20029;-56
2023/08/30 08:52:24;;;;;;;5.25;2.90;;;19.20;99.90;;;;;;5054240;28;20475;-58
2023/08/30 08:54:51;;;;;;;5.43;2.58;;;19.30;99.90;;;;;;5041920;28;20028;-55
2023/08/30 08:57:17;;;;;;;7.57;2.92;;;19.50;99.90;;;;;;5049337;28;20100;-57
2023/08/30 08:59:43;;;;;;;6.60;2.65;;;19.50;99.90;;;;;;5040859;28;20425;-59
2023/08/30 09:02:12;;;;;;;6.10;3.08;;;19.50;99.90;;;;;;5049817;28;20048;-58
2023/08/30 09:04:39;;;;;;;8.50;4.05;;;19.60;99.90;;;;;;5046944;28;20036;-57
2023/08/30 09:07:05;;;;;;;6.65;2.85;;;19.60;99.90;;;;;;5046307;28;20705;-58
2023/08/30 09:09:31;;;;;;;8.90;3.30;;;19.50;99.90;;;;;;5042942;28;20025;-58
2023/08/30 09:11:56;;;;;;;7.20;3.10;;;19.60;99.90;;;;;;5044780;28;20244;-57
2023/08/30 09:14:22;;;;;;;6.45;3.00;;;19.60;99.90;;;;;;5037115;28;20033;-55
2023/08/30 09:17:00;;;;;;;4.05;2.70;;;19.60;99.90;;;;;;5038468;28;20098;-58
2023/08/30 09:19:26;;;;;;;6.60;2.58;;;19.50;99.90;;;;;;5039292;28;20033;-56
2023/08/30 09:21:53;;;;;;;6.35;3.10;;;19.50;99.90;;;;;;5037706;28;20045;-60
2023/08/30 09:24:19;;;;;;;7.03;3.28;;;19.40;99.90;;;;;;5043855;28;20518;-57
2023/08/30 09:26:51;;;;;;;9.43;3.40;;;18.90;99.90;;;;;;5035848;28;20059;-55
2023/08/30 09:29:18;;;;;;;7.80;3.38;;;18.80;99.90;;;;;;5039865;28;20025;-58
2023/08/30 09:31:44;;;;;;;7.00;3.35;;;18.50;99.90;;;;;;5040767;28;20021;-56
2023/08/30 09:34:13;;;;;;;8.10;3.17;;;18.30;99.90;;;;;;5048651;28;20904;-59
2023/08/30 09:36:40;;;;;;;6.18;3.58;;;18.30;99.90;;;;;;5043697;28;20044;-58
2023/08/30 09:39:14;;;;;;;11.05;3.47;;;18.50;99.90;;;;;;5041890;28;20031;-59
2023/08/30 09:41:45;;;;;;;5.47;3.47;;;18.70;99.90;;;;;;5039937;28;20017;-59
2023/08/30 09:44:18;;;;;;;8.35;3.38;;;18.70;99.90;;;;;;5040152;28;20027;-59
2023/08/30 09:46:45;;;;;;;8.07;3.87;;;18.80;99.90;;;;;;5042295;28;20025;-58
2023/08/30 09:49:11;;;;;;;6.80;3.38;;;18.90;99.90;;;;;;5049418;28;20754;-57
2023/08/30 09:51:42;;;;;;;11.98;3.10;;;19.00;99.90;;;;;;5035292;28;20017;-59
2023/08/30 09:54:14;;;;;;;9.27;3.60;;;19.00;99.90;;;;;;5036117;28;20018;-58
2023/08/30 09:56:40;;;;;;;6.53;3.40;;;19.00;99.90;;;;;;5037137;28;20032;-58
2023/08/30 09:59:07;;;;;;;8.68;3.35;;;19.00;99.90;;;;;;5041575;28;20088;-58
2023/08/30 10:01:33;;;;;;;9.02;3.20;;;19.00;99.90;;;;;;5046228;28;20871;-58
2023/08/30 10:04:01;;;;;;;9.57;3.65;;;18.90;99.90;;;;;;5045489;28;20036;-58
2023/08/30 10:06:27;;;;;;;8.35;3.47;;;18.70;99.90;;;;;;5042081;28;20029;-56
2023/08/30 10:08:54;;;;;;;7.28;3.67;;;18.60;99.90;;;;;;5044289;28;20026;-57
2023/08/30 10:11:21;;;;;;;7.00;3.58;;;18.60;99.90;;;;;;5048440;28;20118;-58
2023/08/30 10:13:48;;;;;;;6.20;3.40;;;18.50;99.90;;;;;;5042403;28;20374;-56
2023/08/30 10:16:20;;;;;;;9.43;3.63;;;18.50;99.90;;;;;;5046065;28;20037;-59
2023/08/30 10:18:50;;;;;;;5.55;3.22;;;18.50;99.90;;;;;;5044710;28;20078;-59
2023/08/30 10:21:18;;;;;;;5.07;3.10;;;18.40;99.90;;;;;;5049754;28;20025;-58
2023/08/30 10:23:46;;;;;;;12.13;3.35;;;18.50;99.90;;;;;;5041935;28;20482;-58
2023/08/30 10:26:12;;;;;;;5.05;2.67;;;18.40;99.90;;;;;;5040784;28;20604;-59
2023/08/30 10:28:39;;;;;;;5.45;3.05;;;18.50;99.90;;;;;;5046923;28;20020;-58
2023/08/30 10:31:05;;;;;;;8.57;3.60;;;18.40;99.90;;;;;;5037000;28;20020;-57
2023/08/30 10:33:31;;;;;;;7.50;3.10;;;18.40;99.90;;;;;;5043648;28;20017;-57
2023/08/30 10:36:06;;;;;;;7.40;3.58;;;18.40;99.90;;;;;;5039269;28;20065;-57
2023/08/30 10:38:33;;;;;;;7.95;4.47;;;18.40;99.90;;;;;;5043444;28;20064;-59
2023/08/30 10:41:08;;;;;;;8.48;3.47;;;18.40;99.90;;;;;;5042162;28;20023;-58
2023/08/30 10:43:36;;;;;;;6.40;3.10;;;18.50;99.90;;;;;;5041734;28;20582;-58
2023/08/30 10:46:03;;;;;;;10.40;3.25;;;18.60;99.90;;;;;;5042071;28;20028;-57
2023/08/30 10:48:39;;;;;;;8.23;3.17;;;18.70;99.90;;;;;;5042384;28;20039;-58
2023/08/30 10:51:19;;;;;;;9.85;3.65;;;18.80;99.90;;;;;;5048909;28;20075;-58
2023/08/30 10:53:58;;;;;;;7.70;3.55;;;18.90;99.90;;;;;;5045999;28;20017;-58
2023/08/30 10:56:30;;;;;;;10.63;4.47;;;18.90;99.90;;;;;;5045504;28;20498;-57
2023/08/30 10:58:56;;;;;;;9.40;4.07;;;19.00;99.90;;;;;;5040996;28;20029;-58
2023/08/30 11:01:23;;;;;;;5.03;3.17;;;19.10;99.90;;;;;;5046406;28;20047;-59
2023/08/30 11:03:49;;;;;;;8.80;3.85;;;19.00;99.90;;;;;;5041775;28;20040;-58
2023/08/30 11:06:17;;;;;;;5.55;3.53;;;19.10;99.90;;;;;;5047689;28;20074;-59
2023/08/30 11:08:43;;;;;;;8.25;2.88;;;19.10;99.90;;;;;;5040316;28;20021;-58
2023/08/30 11:11:10;;;;;;;5.38;2.10;;;19.00;99.90;;;;;;5042776;28;20017;-58
2023/08/30 11:13:36;;;;;;;8.00;2.55;;;18.80;99.90;;;;;;5037293;28;20066;-59
2023/08/30 11:16:03;;;;;;;4.97;2.35;;;18.30;99.90;;;;;;5039817;28;20116;-58
2023/08/30 11:18:30;;;;;;;4.85;2.70;;;17.70;99.90;;;;;;5047541;28;20521;-58
2023/08/30 11:21:02;;;;;;;6.03;2.70;;;17.40;99.90;;;;;;5039305;28;20170;-57
2023/08/30 11:23:28;;;;;;;6.63;3.25;;;16.80;99.90;;;;;;5039917;28;20029;-56
2023/08/30 11:25:54;;;;;;;7.00;2.80;;;16.70;99.90;;;;;;5041997;28;20124;-60
2023/08/30 11:28:23;;;;;;;6.10;3.25;;;16.60;99.90;;;;;;5041668;28;20593;-60
2023/08/30 11:30:49;;;;;;;6.60;4.00;;;16.50;99.90;;;;;;5034216;28;20107;-59
2023/08/30 11:33:18;;;;;;;7.65;4.25;;;16.40;99.90;;;;;;5048913;28;20061;-59
2023/08/30 11:35:44;;;;;;;7.85;3.45;;;16.20;99.90;;;;;;5043780;28;20032;-59
2023/08/30 11:38:10;;;;;;;8.55;4.05;;;16.20;99.90;;;;;;5044987;28;20377;-57
2023/08/30 11:40:36;;;;;;;9.52;4.32;;;16.00;99.90;;;;;;5038765;28;20017;-59
2023/08/30 11:43:02;;;;;;;5.95;3.80;;;16.10;99.90;;;;;;5044364;28;20036;-58
2023/08/30 11:45:31;;;;;;;5.55;3.90;;;16.20;99.90;;;;;;5043381;28;20025;-58
2023/08/30 11:47:59;;;;;;;5.25;3.75;;;16.10;99.90;;;;;;5041026;28;20040;-59
2023/08/30 11:50:25;;;;;;;10.35;4.57;;;16.10;99.90;;;;;;5044613;28;20541;-57
2023/08/30 11:52:51;;;;;;;6.20;4.32;;;16.20;99.90;;;;;;5052253;28;20029;-59
2023/08/30 11:55:16;;;;;;;7.00;4.57;;;16.20;99.90;;;;;;5047959;28;20026;-60
2023/08/30 11:57:48;;;;;;;8.93;5.07;;;16.20;99.90;;;;;;5041296;28;20112;-57
2023/08/30 12:00:14;;;;;;;8.77;4.20;;;16.20;99.90;;;;;;5039987;28;20147;-59
2023/08/30 12:02:40;;;;;;;6.18;4.10;;;16.30;99.90;;;;;;5040547;28;20024;-59
2023/08/30 12:05:10;;;;;;;9.35;4.85;;;16.30;99.90;;;;;;5044290;28;20091;-57
2023/08/30 12:07:37;;;;;;;6.80;5.22;;;16.30;99.90;;;;;;5042189;28;20025;-59
2023/08/30 12:10:06;;;;;;;11.27;5.35;;;16.30;99.90;;;;;;5033998;28;20088;-60
2023/08/30 12:12:31;;;;;;;11.48;6.53;;;16.30;99.90;;;;;;5041206;28;20711;-55
2023/08/30 12:14:57;;;;;;;9.95;6.13;;;16.30;99.90;;;;;;5044738;28;20096;-59
2023/08/30 12:17:23;;;;;;;14.25;6.85;;;16.30;99.90;;;;;;5039531;28;20030;-58
2023/08/30 12:19:58;;;;;;;11.57;6.53;;;16.40;99.90;;;;;;5035911;28;20037;-58
2023/08/30 12:22:24;;;;;;;12.38;6.93;;;16.40;99.90;;;;;;5043308;28;20433;-60
2023/08/30 12:24:50;;;;;;;11.02;6.25;;;16.40;99.90;;;;;;5035347;28;20022;-60
2023/08/30 12:27:15;;;;;;;9.82;6.10;;;16.40;99.90;;;;;;5047268;28;20157;-58
2023/08/30 12:29:41;;;;;;;14.27;7.18;;;16.50;99.90;;;;;;5039290;28;20112;-58